Homer, Illinois
Current Conditions -  °F | °C
As of 4:53 PM on Wednesday 26 Nov 2014 (Local Time) from KCMI Reporting Station
Overcast Overcast  
Wind Chill: 23°   Ceiling: 7000
Heat Index: 29°   Visibility: 9mi
Dew Point: 24°   Wind: 6mph
Humidity: 82%   Direction: 40°NE
Pressure: 30.07"   Gusts: NA
Location:  40.03°N, 87.96°W
Report Text: KCMI 262253Z 04005KT 9SM OVC070 M02/M04 A3007 RMK AO2 SLP193 T10171044 $
Loading
Personal Weather Stations






























Interactive Weather Map New forecast layout! Learn more

10-Day Weather Forecast

Advertisements
Track Severe Weather on mobile